NWS059 UUEE-UWKD
Flight info
| Callsign | NWS059 |
|---|---|
| Flight time | 1h 13m |
| Altitude | 35000 |
| Route | KOGOM3E KOGOM L94 EKPIR M864 INKEB L94 UNORO T788 KOROM KOROM1T |
| Aircraft | B738/M-SJ4GIRWYBL/L |
Departure
| Time | 2026-05-01 10:53 |
|---|---|
| Airport | Sheremetyevo International Airport (UUEE) |
Arrival
| Time | 2026-05-01 12:07 |
|---|---|
| Airport | Kazan International Airport (UWKD) |
| Time | Latitude | Longitude | Altitude | Speed | Heading |
|---|---|---|---|---|---|
| 2026-05-01 10:21 | 55.96590 | 37.41284 | 638 ft | 0 kts | 107° |
| 2026-05-01 10:35 | 55.96592 | 37.41271 | 638 ft | 4 kts | 105° |
| 2026-05-01 10:36 | 55.96598 | 37.41178 | 639 ft | 4 kts | 76° |
| 2026-05-01 10:36 | 55.96588 | 37.41145 | 642 ft | 4 kts | 12° |
| 2026-05-01 10:36 | 55.96582 | 37.41143 | 640 ft | 0 kts | 343° |
| 2026-05-01 10:41 | 55.96612 | 37.41129 | 647 ft | 5 kts | 346° |
| 2026-05-01 10:42 | 55.96651 | 37.41111 | 641 ft | 6 kts | 346° |
| 2026-05-01 10:42 | 55.96695 | 37.41091 | 641 ft | 6 kts | 345° |
| 2026-05-01 10:42 | 55.96701 | 37.41088 | 646 ft | 0 kts | 345° |
| 2026-05-01 10:43 | 55.96704 | 37.41086 | 646 ft | 1 kts | 345° |
| 2026-05-01 10:43 | 55.96722 | 37.41078 | 643 ft | 4 kts | 345° |
| 2026-05-01 10:43 | 55.96762 | 37.41059 | 638 ft | 7 kts | 345° |
| 2026-05-01 10:43 | 55.96819 | 37.41032 | 640 ft | 9 kts | 345° |
| 2026-05-01 10:44 | 55.96867 | 37.41082 | 638 ft | 10 kts | 70° |
| 2026-05-01 10:44 | 55.96887 | 37.41207 | 641 ft | 11 kts | 75° |
| 2026-05-01 10:44 | 55.96909 | 37.41353 | 639 ft | 13 kts | 75° |
| 2026-05-01 10:44 | 55.96933 | 37.41510 | 640 ft | 13 kts | 75° |
| 2026-05-01 10:45 | 55.96955 | 37.41665 | 638 ft | 13 kts | 75° |
| 2026-05-01 10:45 | 55.96978 | 37.41815 | 641 ft | 12 kts | 75° |
| 2026-05-01 10:45 | 55.97000 | 37.41965 | 643 ft | 13 kts | 75° |
| 2026-05-01 10:45 | 55.97023 | 37.42114 | 638 ft | 13 kts | 75° |
| 2026-05-01 10:46 | 55.97046 | 37.42268 | 644 ft | 13 kts | 75° |
| 2026-05-01 10:46 | 55.97070 | 37.42427 | 638 ft | 13 kts | 75° |
| 2026-05-01 10:46 | 55.97094 | 37.42591 | 638 ft | 14 kts | 75° |
| 2026-05-01 10:46 | 55.97119 | 37.42761 | 642 ft | 14 kts | 75° |
| 2026-05-01 10:47 | 55.97145 | 37.42935 | 646 ft | 14 kts | 75° |
| 2026-05-01 10:47 | 55.97170 | 37.43103 | 638 ft | 14 kts | 75° |
| 2026-05-01 10:47 | 55.97194 | 37.43263 | 641 ft | 13 kts | 75° |
| 2026-05-01 10:47 | 55.97218 | 37.43422 | 642 ft | 14 kts | 75° |
| 2026-05-01 10:48 | 55.97243 | 37.43589 | 638 ft | 14 kts | 75° |
| 2026-05-01 10:48 | 55.97268 | 37.43758 | 639 ft | 15 kts | 75° |
| 2026-05-01 10:48 | 55.97295 | 37.43937 | 640 ft | 15 kts | 75° |
| 2026-05-01 10:48 | 55.97321 | 37.44107 | 645 ft | 14 kts | 75° |
| 2026-05-01 10:49 | 55.97344 | 37.44260 | 639 ft | 12 kts | 75° |
| 2026-05-01 10:49 | 55.97384 | 37.44383 | 641 ft | 12 kts | 37° |
| 2026-05-01 10:49 | 55.97459 | 37.44412 | 639 ft | 11 kts | 348° |
| 2026-05-01 10:49 | 55.97533 | 37.44371 | 638 ft | 11 kts | 333° |
| 2026-05-01 10:50 | 55.97559 | 37.44254 | 641 ft | 11 kts | 276° |
| 2026-05-01 10:50 | 55.97615 | 37.44183 | 640 ft | 10 kts | 349° |
| 2026-05-01 10:50 | 55.97684 | 37.44151 | 638 ft | 10 kts | 344° |
| 2026-05-01 10:50 | 55.97751 | 37.44115 | 639 ft | 10 kts | 337° |
| 2026-05-01 10:51 | 55.97779 | 37.44015 | 639 ft | 10 kts | 266° |
| 2026-05-01 10:51 | 55.97771 | 37.43954 | 641 ft | 0 kts | 255° |
| 2026-05-01 10:52 | 55.97743 | 37.43767 | 641 ft | 52 kts | 255° |
| 2026-05-01 10:53 | 55.97576 | 37.42648 | 639 ft | 132 kts | 255° |
| 2026-05-01 10:53 | 55.97274 | 37.40704 | 872 ft | 178 kts | 254° |
| 2026-05-01 10:53 | 55.96898 | 37.38574 | 2037 ft | 178 kts | 256° |
| 2026-05-01 10:53 | 55.96567 | 37.36436 | 3153 ft | 176 kts | 257° |
| 2026-05-01 10:54 | 55.96356 | 37.35037 | 3758 ft | 178 kts | 257° |
| 2026-05-01 10:54 | 55.96025 | 37.32849 | 4492 ft | 189 kts | 257° |
| 2026-05-01 10:54 | 55.95672 | 37.30537 | 5126 ft | 198 kts | 257° |
| 2026-05-01 10:54 | 55.95291 | 37.28064 | 5477 ft | 217 kts | 256° |
| 2026-05-01 10:55 | 55.94873 | 37.25357 | 5847 ft | 235 kts | 256° |
| 2026-05-01 10:55 | 55.94411 | 37.22397 | 6256 ft | 259 kts | 256° |
| 2026-05-01 10:55 | 55.93917 | 37.19247 | 7067 ft | 264 kts | 256° |
| 2026-05-01 10:55 | 55.93418 | 37.16072 | 7978 ft | 267 kts | 256° |
| 2026-05-01 10:56 | 55.92918 | 37.12901 | 8802 ft | 271 kts | 256° |
| 2026-05-01 10:56 | 55.92396 | 37.09608 | 9685 ft | 275 kts | 256° |
| 2026-05-01 10:56 | 55.91872 | 37.06305 | 10503 ft | 279 kts | 256° |
| 2026-05-01 10:56 | 55.91629 | 37.02891 | 11215 ft | 280 kts | 279° |
| 2026-05-01 10:57 | 55.92294 | 36.99674 | 11979 ft | 279 kts | 306° |
| 2026-05-01 10:57 | 55.93638 | 36.97246 | 12762 ft | 280 kts | 325° |
| 2026-05-01 10:57 | 55.95252 | 36.95271 | 13557 ft | 284 kts | 327° |
| 2026-05-01 10:57 | 55.96926 | 36.93267 | 14311 ft | 287 kts | 330° |
| 2026-05-01 10:58 | 55.98796 | 36.92045 | 14967 ft | 289 kts | 353° |
| 2026-05-01 10:58 | 56.00806 | 36.92288 | 15161 ft | 294 kts | 15° |
| 2026-05-01 10:58 | 56.02641 | 36.93937 | 15493 ft | 298 kts | 32° |
| 2026-05-01 10:58 | 56.04370 | 36.95999 | 16233 ft | 300 kts | 32° |
| 2026-05-01 10:59 | 56.06119 | 36.98068 | 17002 ft | 302 kts | 31° |
| 2026-05-01 10:59 | 56.07885 | 37.00143 | 17712 ft | 306 kts | 31° |
| 2026-05-01 10:59 | 56.09677 | 37.02242 | 18404 ft | 310 kts | 31° |
| 2026-05-01 10:59 | 56.11359 | 37.04687 | 18988 ft | 317 kts | 49° |
| 2026-05-01 11:00 | 56.12447 | 37.08197 | 19318 ft | 335 kts | 70° |
| 2026-05-01 11:00 | 56.13037 | 37.12342 | 19619 ft | 349 kts | 75° |
| 2026-05-01 11:00 | 56.13596 | 37.16598 | 20162 ft | 353 kts | 74° |
| 2026-05-01 11:00 | 56.14183 | 37.20883 | 20804 ft | 355 kts | 74° |
| 2026-05-01 11:01 | 56.14765 | 37.25199 | 21448 ft | 358 kts | 78° |
| 2026-05-01 11:01 | 56.14748 | 37.29691 | 21998 ft | 367 kts | 101° |
| 2026-05-01 11:01 | 56.13740 | 37.33913 | 22578 ft | 374 kts | 124° |
| 2026-05-01 11:01 | 56.11912 | 37.37221 | 23137 ft | 380 kts | 146° |
| 2026-05-01 11:02 | 56.09557 | 37.39426 | 23738 ft | 383 kts | 154° |
| 2026-05-01 11:02 | 56.07120 | 37.41390 | 24177 ft | 387 kts | 155° |
| 2026-05-01 11:02 | 56.04642 | 37.43377 | 24592 ft | 391 kts | 155° |
| 2026-05-01 11:02 | 56.02161 | 37.45412 | 25027 ft | 394 kts | 154° |
| 2026-05-01 11:03 | 55.99634 | 37.47520 | 25463 ft | 398 kts | 154° |
| 2026-05-01 11:03 | 55.97131 | 37.49693 | 25888 ft | 401 kts | 148° |
| 2026-05-01 11:03 | 55.95008 | 37.52879 | 26211 ft | 399 kts | 127° |
| 2026-05-01 11:03 | 55.93591 | 37.57118 | 26565 ft | 400 kts | 109° |
| 2026-05-01 11:04 | 55.92907 | 37.61913 | 26976 ft | 399 kts | 97° |
| 2026-05-01 11:04 | 55.92431 | 37.66789 | 27407 ft | 402 kts | 98° |
| 2026-05-01 11:04 | 55.91933 | 37.71663 | 27786 ft | 406 kts | 98° |
| 2026-05-01 11:04 | 55.91075 | 37.76554 | 28122 ft | 414 kts | 115° |
| 2026-05-01 11:05 | 55.89678 | 37.80971 | 28544 ft | 416 kts | 118° |
| 2026-05-01 11:05 | 55.88196 | 37.85503 | 28948 ft | 419 kts | 118° |
| 2026-05-01 11:05 | 55.86739 | 37.90013 | 29301 ft | 422 kts | 117° |
| 2026-05-01 11:05 | 55.85306 | 37.94518 | 29659 ft | 425 kts | 117° |
| 2026-05-01 11:06 | 55.83841 | 37.99180 | 30021 ft | 428 kts | 117° |
| 2026-05-01 11:06 | 55.82436 | 38.03660 | 30332 ft | 430 kts | 117° |
| 2026-05-01 11:06 | 55.80974 | 38.08314 | 30624 ft | 432 kts | 116° |
| 2026-05-01 11:07 | 55.79573 | 38.18529 | 30946 ft | 432 kts | 85° |
| 2026-05-01 11:07 | 55.79757 | 38.23892 | 31035 ft | 439 kts | 84° |
| 2026-05-01 11:07 | 55.80081 | 38.34902 | 31157 ft | 453 kts | 85° |
| 2026-05-01 11:08 | 55.80910 | 38.46056 | 31396 ft | 457 kts | 70° |
| 2026-05-01 11:08 | 55.82992 | 38.56672 | 32118 ft | 454 kts | 69° |
| 2026-05-01 11:09 | 55.83996 | 38.62019 | 32377 ft | 455 kts | 70° |
| 2026-05-01 11:09 | 55.84951 | 38.67326 | 32616 ft | 457 kts | 71° |
| 2026-05-01 11:09 | 55.85926 | 38.72701 | 32913 ft | 456 kts | 68° |
| 2026-05-01 11:10 | 55.88507 | 38.82804 | 33504 ft | 454 kts | 62° |
| 2026-05-01 11:10 | 55.89935 | 38.87817 | 33744 ft | 455 kts | 62° |
| 2026-05-01 11:10 | 55.91348 | 38.92868 | 34012 ft | 455 kts | 62° |
| 2026-05-01 11:10 | 55.92723 | 38.97942 | 34297 ft | 455 kts | 63° |
| 2026-05-01 11:11 | 55.94076 | 39.03044 | 34524 ft | 455 kts | 63° |
| 2026-05-01 11:11 | 55.95421 | 39.08161 | 34707 ft | 456 kts | 64° |
| 2026-05-01 11:11 | 55.96547 | 39.13441 | 34864 ft | 459 kts | 76° |
| 2026-05-01 11:11 | 55.96938 | 39.19109 | 35079 ft | 460 kts | 84° |
| 2026-05-01 11:12 | 55.97182 | 39.24872 | 35195 ft | 462 kts | 84° |
| 2026-05-01 11:12 | 55.97433 | 39.30603 | 35194 ft | 464 kts | 84° |
| 2026-05-01 11:12 | 55.98000 | 39.42049 | 35197 ft | 460 kts | 83° |
| 2026-05-01 11:13 | 55.98604 | 39.53380 | 35205 ft | 457 kts | 83° |
| 2026-05-01 11:13 | 55.99214 | 39.64635 | 35196 ft | 454 kts | 80° |
| 2026-05-01 11:14 | 56.00087 | 39.70006 | 35197 ft | 450 kts | 62° |
| 2026-05-01 11:14 | 56.01517 | 39.74986 | 35207 ft | 452 kts | 64° |
| 2026-05-01 11:14 | 56.02591 | 39.80287 | 35209 ft | 458 kts | 75° |
| 2026-05-01 11:14 | 56.03134 | 39.85930 | 35203 ft | 463 kts | 85° |
| 2026-05-01 11:15 | 56.03280 | 39.97635 | 35212 ft | 471 kts | 88° |
| 2026-05-01 11:15 | 56.03345 | 40.09328 | 35205 ft | 476 kts | 88° |
| 2026-05-01 11:16 | 56.03463 | 40.21203 | 35205 ft | 478 kts | 88° |
| 2026-05-01 11:16 | 56.03602 | 40.33203 | 35203 ft | 479 kts | 88° |
| 2026-05-01 11:17 | 56.03733 | 40.45111 | 35198 ft | 479 kts | 88° |
| 2026-05-01 11:17 | 56.03848 | 40.57027 | 35204 ft | 478 kts | 88° |
| 2026-05-01 11:18 | 56.03953 | 40.68906 | 35199 ft | 477 kts | 88° |
| 2026-05-01 11:18 | 56.04043 | 40.80764 | 35199 ft | 476 kts | 88° |
| 2026-05-01 11:19 | 56.04114 | 40.92588 | 35204 ft | 475 kts | 88° |
| 2026-05-01 11:19 | 56.04175 | 41.04419 | 35194 ft | 475 kts | 88° |
| 2026-05-01 11:20 | 56.04226 | 41.16216 | 35200 ft | 474 kts | 89° |
| 2026-05-01 11:20 | 56.04266 | 41.28009 | 35191 ft | 474 kts | 89° |
| 2026-05-01 11:21 | 56.04295 | 41.39789 | 35199 ft | 474 kts | 89° |
| 2026-05-01 11:21 | 56.04313 | 41.51586 | 35188 ft | 474 kts | 89° |
| 2026-05-01 11:22 | 56.04319 | 41.63375 | 35195 ft | 474 kts | 89° |
| 2026-05-01 11:22 | 56.04315 | 41.75177 | 35185 ft | 474 kts | 89° |
| 2026-05-01 11:23 | 56.04299 | 41.86986 | 35194 ft | 475 kts | 89° |
| 2026-05-01 11:23 | 56.04271 | 41.98792 | 35178 ft | 475 kts | 90° |
| 2026-05-01 11:24 | 56.04233 | 42.10606 | 35187 ft | 475 kts | 90° |
| 2026-05-01 11:25 | 56.04154 | 42.28353 | 35187 ft | 476 kts | 90° |
| 2026-05-01 11:25 | 56.04051 | 42.46082 | 35176 ft | 476 kts | 90° |
| 2026-05-01 11:26 | 56.03897 | 42.63853 | 35179 ft | 476 kts | 91° |
| 2026-05-01 11:27 | 56.03750 | 42.75706 | 35176 ft | 477 kts | 91° |
| 2026-05-01 11:27 | 56.03594 | 42.87575 | 35175 ft | 477 kts | 91° |
| 2026-05-01 11:28 | 56.03432 | 42.99434 | 35172 ft | 478 kts | 91° |
| 2026-05-01 11:28 | 56.03288 | 43.09383 | 35169 ft | 478 kts | 91° |
| 2026-05-01 11:29 | 56.03010 | 43.27227 | 35166 ft | 479 kts | 92° |
| 2026-05-01 11:30 | 56.03508 | 43.45104 | 35165 ft | 479 kts | 83° |
| 2026-05-01 11:30 | 56.04405 | 43.56918 | 35157 ft | 480 kts | 82° |
| 2026-05-01 11:31 | 56.05256 | 43.68679 | 35156 ft | 480 kts | 83° |
| 2026-05-01 11:31 | 56.06050 | 43.80554 | 35155 ft | 481 kts | 84° |
| 2026-05-01 11:32 | 56.06816 | 43.92437 | 35122 ft | 481 kts | 82° |
| 2026-05-01 11:32 | 56.07564 | 44.04230 | 35139 ft | 473 kts | 82° |
| 2026-05-01 11:33 | 56.08298 | 44.15880 | 35148 ft | 470 kts | 83° |
| 2026-05-01 11:33 | 56.09019 | 44.27508 | 35153 ft | 470 kts | 83° |
| 2026-05-01 11:34 | 56.09728 | 44.39146 | 35147 ft | 470 kts | 83° |
| 2026-05-01 11:34 | 56.10428 | 44.50804 | 35143 ft | 471 kts | 83° |
| 2026-05-01 11:35 | 56.11119 | 44.62479 | 35138 ft | 472 kts | 83° |
| 2026-05-01 11:35 | 56.11282 | 44.74241 | 35141 ft | 474 kts | 91° |
| 2026-05-01 11:36 | 56.10933 | 44.86057 | 35139 ft | 475 kts | 92° |
| 2026-05-01 11:36 | 56.10658 | 44.97883 | 35136 ft | 476 kts | 91° |
| 2026-05-01 11:37 | 56.10408 | 45.09701 | 35132 ft | 476 kts | 91° |
| 2026-05-01 11:37 | 56.10122 | 45.21588 | 35129 ft | 477 kts | 91° |
| 2026-05-01 11:38 | 56.09830 | 45.33358 | 35115 ft | 466 kts | 92° |
| 2026-05-01 11:38 | 56.09536 | 45.44867 | 35120 ft | 461 kts | 92° |
| 2026-05-01 11:39 | 56.09234 | 45.56313 | 35124 ft | 459 kts | 92° |
| 2026-05-01 11:39 | 56.08923 | 45.67710 | 35125 ft | 458 kts | 92° |
| 2026-05-01 11:40 | 56.08601 | 45.79088 | 35123 ft | 457 kts | 92° |
| 2026-05-01 11:40 | 56.08269 | 45.90469 | 35120 ft | 458 kts | 92° |
| 2026-05-01 11:41 | 56.07926 | 46.01872 | 35122 ft | 459 kts | 92° |
| 2026-05-01 11:41 | 56.07573 | 46.13243 | 35120 ft | 461 kts | 92° |
| 2026-05-01 11:42 | 56.07204 | 46.24799 | 35116 ft | 463 kts | 93° |
| 2026-05-01 11:42 | 56.06829 | 46.36247 | 35115 ft | 465 kts | 93° |
| 2026-05-01 11:43 | 56.06426 | 46.47875 | 35113 ft | 466 kts | 95° |
| 2026-05-01 11:43 | 56.04932 | 46.59100 | 34679 ft | 474 kts | 110° |
| 2026-05-01 11:44 | 56.02508 | 46.70043 | 33353 ft | 473 kts | 111° |
| 2026-05-01 11:44 | 56.01286 | 46.75496 | 32622 ft | 472 kts | 111° |
| 2026-05-01 11:44 | 56.00086 | 46.80940 | 32123 ft | 467 kts | 111° |
| 2026-05-01 11:44 | 55.98915 | 46.86322 | 31625 ft | 463 kts | 111° |
| 2026-05-01 11:45 | 55.97764 | 46.91656 | 31141 ft | 458 kts | 111° |
| 2026-05-01 11:45 | 55.96612 | 46.97002 | 30663 ft | 454 kts | 111° |
| 2026-05-01 11:45 | 55.95482 | 47.02231 | 30178 ft | 450 kts | 111° |
| 2026-05-01 11:45 | 55.94362 | 47.07402 | 29602 ft | 445 kts | 111° |
| 2026-05-01 11:46 | 55.93249 | 47.12523 | 29098 ft | 439 kts | 112° |
| 2026-05-01 11:46 | 55.92150 | 47.17560 | 28618 ft | 433 kts | 112° |
| 2026-05-01 11:46 | 55.91061 | 47.22535 | 28145 ft | 427 kts | 112° |
| 2026-05-01 11:46 | 55.89989 | 47.27425 | 27676 ft | 422 kts | 112° |
| 2026-05-01 11:47 | 55.88924 | 47.32277 | 27206 ft | 417 kts | 112° |
| 2026-05-01 11:47 | 55.87874 | 47.37051 | 26735 ft | 413 kts | 112° |
| 2026-05-01 11:47 | 55.86832 | 47.41780 | 26266 ft | 408 kts | 112° |
| 2026-05-01 11:47 | 55.85783 | 47.46530 | 25805 ft | 404 kts | 112° |
| 2026-05-01 11:48 | 55.84756 | 47.51166 | 25359 ft | 400 kts | 113° |
| 2026-05-01 11:48 | 55.83741 | 47.55746 | 24907 ft | 396 kts | 113° |
| 2026-05-01 11:48 | 55.82732 | 47.60282 | 24463 ft | 392 kts | 113° |
| 2026-05-01 11:48 | 55.81731 | 47.64773 | 24021 ft | 389 kts | 113° |
| 2026-05-01 11:49 | 55.80738 | 47.69226 | 23576 ft | 386 kts | 113° |
| 2026-05-01 11:49 | 55.79753 | 47.73635 | 23050 ft | 382 kts | 113° |
| 2026-05-01 11:49 | 55.78774 | 47.78000 | 22628 ft | 378 kts | 113° |
| 2026-05-01 11:49 | 55.77804 | 47.82312 | 22191 ft | 373 kts | 113° |
| 2026-05-01 11:50 | 55.76840 | 47.86564 | 21753 ft | 370 kts | 113° |
| 2026-05-01 11:50 | 55.75879 | 47.90787 | 21341 ft | 367 kts | 113° |
| 2026-05-01 11:50 | 55.74925 | 47.94967 | 20896 ft | 364 kts | 113° |
| 2026-05-01 11:50 | 55.73979 | 47.99108 | 20483 ft | 360 kts | 113° |
| 2026-05-01 11:51 | 55.73042 | 48.03205 | 20057 ft | 357 kts | 112° |
| 2026-05-01 11:51 | 55.72111 | 48.07266 | 19645 ft | 354 kts | 112° |
| 2026-05-01 11:51 | 55.71186 | 48.11293 | 19234 ft | 352 kts | 112° |
| 2026-05-01 11:51 | 55.70267 | 48.15292 | 18826 ft | 349 kts | 112° |
| 2026-05-01 11:52 | 55.69352 | 48.19264 | 18425 ft | 347 kts | 112° |
| 2026-05-01 11:52 | 55.68441 | 48.23213 | 17977 ft | 346 kts | 112° |
| 2026-05-01 11:52 | 55.67532 | 48.27149 | 17536 ft | 345 kts | 112° |
| 2026-05-01 11:52 | 55.66624 | 48.31067 | 17129 ft | 343 kts | 112° |
| 2026-05-01 11:53 | 55.65721 | 48.34965 | 16695 ft | 341 kts | 112° |
| 2026-05-01 11:53 | 55.64823 | 48.38831 | 16305 ft | 338 kts | 112° |
| 2026-05-01 11:53 | 55.63932 | 48.42659 | 15893 ft | 336 kts | 112° |
| 2026-05-01 11:53 | 55.63042 | 48.46471 | 15500 ft | 334 kts | 112° |
| 2026-05-01 11:54 | 55.62121 | 48.50230 | 15106 ft | 332 kts | 116° |
| 2026-05-01 11:54 | 55.61010 | 48.53798 | 14724 ft | 330 kts | 120° |
| 2026-05-01 11:54 | 55.59825 | 48.57262 | 14345 ft | 328 kts | 121° |
| 2026-05-01 11:54 | 55.58631 | 48.60701 | 13965 ft | 327 kts | 121° |
| 2026-05-01 11:55 | 55.57454 | 48.64114 | 13542 ft | 326 kts | 120° |
| 2026-05-01 11:55 | 55.56286 | 48.67537 | 13135 ft | 324 kts | 120° |
| 2026-05-01 11:55 | 55.55135 | 48.70938 | 12746 ft | 321 kts | 120° |
| 2026-05-01 11:55 | 55.53998 | 48.74310 | 12362 ft | 319 kts | 120° |
| 2026-05-01 11:56 | 55.52870 | 48.77667 | 11984 ft | 317 kts | 120° |
| 2026-05-01 11:56 | 55.51753 | 48.80990 | 11605 ft | 314 kts | 119° |
| 2026-05-01 11:56 | 55.50639 | 48.84303 | 11233 ft | 312 kts | 119° |
| 2026-05-01 11:56 | 55.49533 | 48.87590 | 10870 ft | 310 kts | 119° |
| 2026-05-01 11:57 | 55.48436 | 48.90846 | 10531 ft | 309 kts | 119° |
| 2026-05-01 11:57 | 55.47708 | 48.93008 | 10267 ft | 309 kts | 119° |
| 2026-05-01 11:57 | 55.46239 | 48.97358 | 9777 ft | 309 kts | 119° |
| 2026-05-01 11:57 | 55.45135 | 49.00621 | 9361 ft | 310 kts | 119° |
| 2026-05-01 11:58 | 55.44032 | 49.03873 | 8975 ft | 309 kts | 119° |
| 2026-05-01 11:58 | 55.42932 | 49.07112 | 8616 ft | 308 kts | 119° |
| 2026-05-01 11:58 | 55.40735 | 49.13564 | 7862 ft | 306 kts | 119° |
| 2026-05-01 11:59 | 55.39638 | 49.16786 | 7487 ft | 306 kts | 120° |
| 2026-05-01 11:59 | 55.38543 | 49.19995 | 7111 ft | 306 kts | 120° |
| 2026-05-01 11:59 | 55.37450 | 49.23189 | 6736 ft | 304 kts | 120° |
| 2026-05-01 12:00 | 55.35557 | 49.29717 | 5962 ft | 298 kts | 98° |
| 2026-05-01 12:00 | 55.35662 | 49.33269 | 5637 ft | 290 kts | 72° |
| 2026-05-01 12:00 | 55.38003 | 49.38737 | 4956 ft | 282 kts | 35° |
| 2026-05-01 12:01 | 55.39599 | 49.40761 | 4606 ft | 283 kts | 35° |
| 2026-05-01 12:01 | 55.41187 | 49.42793 | 4244 ft | 282 kts | 35° |
| 2026-05-01 12:01 | 55.42763 | 49.44800 | 3903 ft | 275 kts | 34° |
| 2026-05-01 12:01 | 55.44318 | 49.46668 | 3615 ft | 264 kts | 33° |
| 2026-05-01 12:02 | 55.45787 | 49.48418 | 3527 ft | 246 kts | 33° |
| 2026-05-01 12:02 | 55.47157 | 49.50057 | 3458 ft | 230 kts | 33° |
| 2026-05-01 12:02 | 55.48431 | 49.51577 | 3411 ft | 212 kts | 31° |
| 2026-05-01 12:02 | 55.49755 | 49.52278 | 3342 ft | 192 kts | 356° |
| 2026-05-01 12:03 | 55.50967 | 49.51628 | 3322 ft | 176 kts | 330° |
| 2026-05-01 12:03 | 55.51872 | 49.50232 | 3287 ft | 174 kts | 310° |
| 2026-05-01 12:03 | 55.52622 | 49.48531 | 3039 ft | 175 kts | 309° |
| 2026-05-01 12:03 | 55.53324 | 49.46812 | 2843 ft | 167 kts | 307° |
| 2026-05-01 12:04 | 55.53970 | 49.45149 | 2571 ft | 162 kts | 306° |
| 2026-05-01 12:04 | 55.54613 | 49.43480 | 2340 ft | 164 kts | 306° |
| 2026-05-01 12:04 | 55.55243 | 49.41842 | 2114 ft | 160 kts | 306° |
| 2026-05-01 12:04 | 55.55854 | 49.40248 | 1870 ft | 154 kts | 306° |
| 2026-05-01 12:05 | 55.56449 | 49.38701 | 1679 ft | 151 kts | 307° |
| 2026-05-01 12:05 | 55.57435 | 49.36141 | 1333 ft | 153 kts | 306° |
| 2026-05-01 12:05 | 55.58038 | 49.34576 | 1093 ft | 151 kts | 304° |
| 2026-05-01 12:06 | 55.58637 | 49.33035 | 837 ft | 153 kts | 304° |
| 2026-05-01 12:06 | 55.59235 | 49.31477 | 636 ft | 152 kts | 303° |
| 2026-05-01 12:06 | 55.59824 | 49.29946 | 428 ft | 150 kts | 303° |
| 2026-05-01 12:06 | 55.60370 | 49.28510 | 409 ft | 124 kts | 304° |
| 2026-05-01 12:07 | 55.60736 | 49.27575 | 417 ft | 61 kts | 305° |
| 2026-05-01 12:07 | 55.60911 | 49.27137 | 409 ft | 35 kts | 304° |
| 2026-05-01 12:07 | 55.61012 | 49.26873 | 413 ft | 13 kts | 304° |
| 2026-05-01 12:07 | 55.61080 | 49.26778 | 416 ft | 13 kts | 359° |
| 2026-05-01 12:08 | 55.61157 | 49.26852 | 416 ft | 13 kts | 34° |
| 2026-05-01 12:08 | 55.61199 | 49.26902 | 410 ft | 0 kts | 34° |
| 2026-05-01 12:09 | 55.61200 | 49.26904 | 410 ft | 1 kts | 34° |
| 2026-05-01 12:09 | 55.61213 | 49.26923 | 412 ft | 4 kts | 48° |
| 2026-05-01 12:09 | 55.61219 | 49.26980 | 415 ft | 6 kts | 99° |
| 2026-05-01 12:10 | 55.61197 | 49.27058 | 412 ft | 8 kts | 125° |
| 2026-05-01 12:10 | 55.61114 | 49.27268 | 410 ft | 12 kts | 125° |
| 2026-05-01 12:10 | 55.61062 | 49.27402 | 415 ft | 14 kts | 124° |
| 2026-05-01 12:11 | 55.60958 | 49.27672 | 410 ft | 13 kts | 124° |
| 2026-05-01 12:11 | 55.60908 | 49.27800 | 410 ft | 12 kts | 124° |
| 2026-05-01 12:11 | 55.60860 | 49.27924 | 410 ft | 12 kts | 124° |
| 2026-05-01 12:12 | 55.60812 | 49.28046 | 413 ft | 12 kts | 124° |
| 2026-05-01 12:12 | 55.60766 | 49.28165 | 412 ft | 12 kts | 124° |
| 2026-05-01 12:12 | 55.60722 | 49.28281 | 411 ft | 11 kts | 124° |
| 2026-05-01 12:12 | 55.60678 | 49.28393 | 412 ft | 11 kts | 124° |
| 2026-05-01 12:13 | 55.60636 | 49.28503 | 410 ft | 11 kts | 124° |
| 2026-05-01 12:13 | 55.60599 | 49.28612 | 412 ft | 10 kts | 109° |
| 2026-05-01 12:13 | 55.60589 | 49.28735 | 415 ft | 10 kts | 94° |
| 2026-05-01 12:13 | 55.60584 | 49.28855 | 415 ft | 10 kts | 94° |
| 2026-05-01 12:14 | 55.60578 | 49.28974 | 415 ft | 9 kts | 95° |
| 2026-05-01 12:14 | 55.60580 | 49.29088 | 415 ft | 9 kts | 75° |
| 2026-05-01 12:14 | 55.60614 | 49.29180 | 413 ft | 9 kts | 43° |
| 2026-05-01 12:14 | 55.60664 | 49.29245 | 415 ft | 9 kts | 34° |
| 2026-05-01 12:15 | 55.60713 | 49.29305 | 415 ft | 8 kts | 35° |
| 2026-05-01 12:15 | 55.60761 | 49.29363 | 415 ft | 8 kts | 34° |
| 2026-05-01 12:15 | 55.60807 | 49.29421 | 415 ft | 8 kts | 42° |
| 2026-05-01 12:15 | 55.60801 | 49.29510 | 408 ft | 8 kts | 120° |
| 2026-05-01 12:16 | 55.60771 | 49.29589 | 412 ft | 8 kts | 124° |
| 2026-05-01 12:16 | 55.60743 | 49.29666 | 410 ft | 7 kts | 112° |
| 2026-05-01 12:16 | 55.60753 | 49.29716 | 415 ft | 4 kts | 47° |
| 2026-05-01 12:16 | 55.60778 | 49.29749 | 415 ft | 4 kts | 33° |
| 2026-05-01 12:17 | 55.60785 | 49.29757 | 415 ft | 0 kts | 34° |